createdAt,value
2018-10-18T00:00:21.736Z,13.68
2018-10-18T00:01:02.356Z,13.68
2018-10-18T00:01:42.925Z,13.75
2018-10-18T00:02:23.515Z,13.62
2018-10-18T00:03:04.106Z,13.68
2018-10-18T00:03:44.782Z,13.68
2018-10-18T00:04:25.416Z,13.56
2018-10-18T00:05:05.972Z,13.67
2018-10-18T00:05:46.561Z,13.67
2018-10-18T00:06:27.127Z,13.59
2018-10-18T00:07:07.730Z,13.56
2018-10-18T00:07:48.274Z,13.6
2018-10-18T00:08:29.006Z,13.67
2018-10-18T00:09:09.684Z,13.6
2018-10-18T00:09:50.249Z,13.62
2018-10-18T00:10:30.855Z,13.67
2018-10-18T00:11:11.425Z,13.65
2018-10-18T00:11:51.989Z,13.67
2018-10-18T00:12:32.564Z,13.68
2018-10-18T00:13:13.148Z,13.67
2018-10-18T00:13:53.789Z,13.62
2018-10-18T00:14:34.342Z,13.65
2018-10-18T00:15:14.911Z,13.67
2018-10-18T00:15:55.510Z,13.65
2018-10-18T00:16:36.092Z,13.57
2018-10-18T00:17:16.648Z,13.56
2018-10-18T00:17:57.209Z,13.62
2018-10-18T00:18:37.736Z,13.67
2018-10-18T00:19:18.301Z,13.56
2018-10-18T00:19:58.866Z,13.56
2018-10-18T00:20:39.409Z,13.6
2018-10-18T00:21:19.972Z,13.6
2018-10-18T00:22:00.541Z,13.67
2018-10-18T00:22:41.169Z,13.6
2018-10-18T00:23:21.701Z,13.62
2018-10-18T00:24:02.270Z,13.59
2018-10-18T00:24:42.815Z,13.54
2018-10-18T00:25:23.365Z,13.59
2018-10-18T00:26:03.970Z,13.54
2018-10-18T00:26:44.488Z,13.6
2018-10-18T00:27:25.062Z,13.57
2018-10-18T00:28:05.635Z,13.59
2018-10-18T00:28:48.886Z,13.57
2018-10-18T00:29:29.451Z,13.57
2018-10-18T00:30:10.161Z,13.54
2018-10-18T00:30:50.634Z,13.5
2018-10-18T00:31:31.196Z,13.56
2018-10-18T00:32:11.761Z,13.5
2018-10-18T00:32:52.320Z,13.53
2018-10-18T00:33:32.891Z,13.49
2018-10-18T00:34:13.448Z,13.52
2018-10-18T00:34:54.024Z,13.49
2018-10-18T00:35:34.597Z,13.47
2018-10-18T00:36:15.183Z,13.53
2018-10-18T00:36:55.701Z,13.47
2018-10-18T00:37:36.254Z,13.47
2018-10-18T00:38:16.983Z,13.5
2018-10-18T00:38:57.392Z,13.47
2018-10-18T00:39:37.977Z,13.47
2018-10-18T00:40:18.554Z,13.49
2018-10-18T00:40:59.097Z,13.46
2018-10-18T00:41:39.655Z,13.49
2018-10-18T00:42:20.218Z,13.47
2018-10-18T00:43:00.772Z,13.5
2018-10-18T00:43:41.348Z,13.5
2018-10-18T00:44:21.937Z,13.47
2018-10-18T00:45:02.500Z,13.44
2018-10-18T00:45:43.075Z,13.49
2018-10-18T00:46:23.627Z,13.5
2018-10-18T00:47:04.175Z,13.52
2018-10-18T00:47:44.729Z,13.44
2018-10-18T00:48:25.282Z,13.52
2018-10-18T00:49:05.829Z,13.5
2018-10-18T00:49:46.378Z,13.47
2018-10-18T00:50:26.968Z,13.39
2018-10-18T00:51:07.522Z,13.47
2018-10-18T00:51:48.129Z,13.39
2018-10-18T00:52:28.668Z,13.53
2018-10-18T00:53:09.238Z,13.49
2018-10-18T00:53:49.887Z,13.44
2018-10-18T00:54:30.441Z,13.44
2018-10-18T00:55:11.014Z,13.5
2018-10-18T00:55:51.638Z,13.38
2018-10-18T00:56:32.182Z,13.31
2018-10-18T00:57:12.743Z,13.49
2018-10-18T00:57:53.338Z,13.41
2018-10-18T00:58:33.925Z,13.38
2018-10-18T00:59:14.485Z,13.41
2018-10-18T00:59:55.125Z,13.39
2018-10-18T01:00:35.623Z,13.42
2018-10-18T01:01:16.218Z,13.39
2018-10-18T01:01:56.816Z,13.38
2018-10-18T01:02:37.333Z,13.41
2018-10-18T01:03:17.892Z,13.41
2018-10-18T01:03:58.458Z,13.42
2018-10-18T01:04:39.044Z,13.41
2018-10-18T01:05:19.634Z,13.37
2018-10-18T01:06:00.224Z,13.37
2018-10-18T01:06:40.788Z,13.38
2018-10-18T01:07:21.359Z,13.39
2018-10-18T01:08:02.011Z,13.42
2018-10-18T01:08:42.501Z,13.38
2018-10-18T01:09:23.056Z,13.44
2018-10-18T01:10:03.608Z,13.37
2018-10-18T01:10:44.168Z,13.44
2018-10-18T01:11:24.722Z,13.35
2018-10-18T01:12:05.303Z,13.37
2018-10-18T01:12:45.937Z,13.38
2018-10-18T01:13:26.427Z,13.35
2018-10-18T01:14:07.089Z,13.37
2018-10-18T01:14:47.565Z,13.41
2018-10-18T01:15:28.128Z,13.41
2018-10-18T01:16:08.731Z,13.38
2018-10-18T01:16:49.353Z,13.42
2018-10-18T01:17:29.868Z,13.38
2018-10-18T01:18:10.529Z,13.35
2018-10-18T01:18:51.038Z,13.31
2018-10-18T01:19:31.640Z,13.35
2018-10-18T01:20:12.360Z,13.37
2018-10-18T01:20:52.760Z,13.31
2018-10-18T01:21:33.342Z,13.33
2018-10-18T01:22:13.899Z,13.33
2018-10-18T01:22:54.476Z,13.33
2018-10-18T01:23:35.027Z,13.31
2018-10-18T01:24:15.664Z,13.3
2018-10-18T01:24:56.143Z,13.37
2018-10-18T01:25:36.760Z,13.23
2018-10-18T01:26:17.396Z,13.23
2018-10-18T01:26:57.899Z,13.27
2018-10-18T01:27:38.516Z,13.25
2018-10-18T01:28:19.068Z,13.22
2018-10-18T01:28:59.623Z,13.3
2018-10-18T01:29:40.180Z,13.23
2018-10-18T01:30:20.752Z,13.3
2018-10-18T01:31:01.314Z,13.2
2018-10-18T01:31:41.858Z,13.27
2018-10-18T01:32:22.439Z,13.15
2018-10-18T01:33:03.021Z,13.23
2018-10-18T01:33:43.590Z,13.18
2018-10-18T01:34:24.140Z,13.22
2018-10-18T01:35:04.718Z,13.19
2018-10-18T01:35:45.314Z,13.15
2018-10-18T01:36:25.895Z,13.19
2018-10-18T01:37:06.464Z,13.15
2018-10-18T01:37:47.019Z,13.08
2018-10-18T01:38:27.567Z,13.18
2018-10-18T01:39:08.127Z,13.11
2018-10-18T01:39:48.726Z,13.18
2018-10-18T01:40:29.301Z,13.19
2018-10-18T01:41:09.902Z,13.15
2018-10-18T01:41:50.483Z,13.15
2018-10-18T01:42:31.045Z,13.15
2018-10-18T01:43:11.658Z,13.11
2018-10-18T01:43:52.258Z,13.08
2018-10-18T01:44:32.774Z,13.15
2018-10-18T01:45:13.332Z,13.12
2018-10-18T01:45:53.906Z,13.12
2018-10-18T01:46:34.534Z,13.11
2018-10-18T01:47:15.106Z,13.08
2018-10-18T01:47:55.717Z,13.13
2018-10-18T01:48:36.271Z,13.08
2018-10-18T01:49:16.837Z,13.09
2018-10-18T01:49:57.444Z,13.08
2018-10-18T01:50:37.967Z,13.08
2018-10-18T01:51:18.561Z,13.08
2018-10-18T01:51:59.147Z,13.08
2018-10-18T01:52:39.731Z,13.08
2018-10-18T01:53:20.335Z,13.08
2018-10-18T01:54:00.959Z,13.08
2018-10-18T01:54:41.494Z,13.11
2018-10-18T01:55:22.048Z,13.04
2018-10-18T01:56:02.642Z,13.05
2018-10-18T01:56:43.183Z,13.11
2018-10-18T01:57:23.773Z,13.11
2018-10-18T01:58:04.329Z,13.08
2018-10-18T01:58:44.878Z,13.05
2018-10-18T01:59:25.446Z,13.05
2018-10-18T02:00:06.043Z,13.01
2018-10-18T02:00:46.555Z,13.05
2018-10-18T02:01:27.136Z,13.03
2018-10-18T02:02:07.712Z,13.05
2018-10-18T02:02:48.266Z,13.04
2018-10-18T02:03:28.831Z,13.04
2018-10-18T02:04:09.386Z,13.05
2018-10-18T02:04:49.966Z,13.05
2018-10-18T02:05:30.547Z,13.01
2018-10-18T02:06:11.210Z,12.98
2018-10-18T02:06:51.697Z,12.97
2018-10-18T02:07:32.220Z,13
2018-10-18T02:08:12.853Z,13
2018-10-18T02:08:53.445Z,12.97
2018-10-18T02:09:34.021Z,13.03
2018-10-18T02:10:14.628Z,12.97
2018-10-18T02:10:55.191Z,12.98
2018-10-18T02:11:35.756Z,12.98
2018-10-18T02:12:16.340Z,13.01
2018-10-18T02:12:56.874Z,12.98
2018-10-18T02:13:37.581Z,12.97
2018-10-18T02:14:18.058Z,12.93
2018-10-18T02:14:58.625Z,12.93
2018-10-18T02:15:39.203Z,13.03
2018-10-18T02:16:19.795Z,12.97
2018-10-18T02:17:00.357Z,12.97
2018-10-18T02:17:40.932Z,12.97
2018-10-18T02:18:21.519Z,12.98
2018-10-18T02:19:02.144Z,12.98
2018-10-18T02:19:42.665Z,12.98
2018-10-18T02:20:23.232Z,12.97
2018-10-18T02:21:03.823Z,12.97
2018-10-18T02:21:44.372Z,12.98
2018-10-18T02:22:24.944Z,13.01
2018-10-18T02:23:05.527Z,12.95
2018-10-18T02:23:46.077Z,12.91
2018-10-18T02:24:26.640Z,12.97
2018-10-18T02:25:07.338Z,13.04
2018-10-18T02:25:47.819Z,12.97
2018-10-18T02:26:28.378Z,12.95
2018-10-18T02:27:08.928Z,12.97
2018-10-18T02:27:49.486Z,12.98
2018-10-18T02:28:30.109Z,12.93
2018-10-18T02:29:10.686Z,12.91
2018-10-18T02:29:51.288Z,12.93
2018-10-18T02:30:31.792Z,12.93
2018-10-18T02:31:12.354Z,12.87
2018-10-18T02:31:52.929Z,12.93
2018-10-18T02:32:33.525Z,13
2018-10-18T02:33:14.114Z,12.94
2018-10-18T02:33:54.661Z,12.91
2018-10-18T02:34:35.211Z,12.97
2018-10-18T02:35:15.762Z,12.91
2018-10-18T02:35:56.357Z,12.93
2018-10-18T02:36:36.917Z,12.97
2018-10-18T02:37:17.491Z,12.86
2018-10-18T02:37:58.040Z,12.9
2018-10-18T02:38:38.598Z,12.94
2018-10-18T02:39:19.151Z,12.85
2018-10-18T02:39:59.733Z,12.94
2018-10-18T02:40:40.294Z,12.91
2018-10-18T02:41:20.858Z,12.93
2018-10-18T02:42:01.531Z,12.9
2018-10-18T02:42:42.024Z,12.86
2018-10-18T02:43:22.604Z,12.86
2018-10-18T02:44:03.156Z,12.9
2018-10-18T02:44:43.748Z,12.83
2018-10-18T02:45:24.321Z,12.83
2018-10-18T02:46:04.880Z,12.87
2018-10-18T02:46:45.489Z,12.86
2018-10-18T02:47:26.061Z,12.85
2018-10-18T02:48:06.717Z,12.85
2018-10-18T02:48:47.206Z,12.83
2018-10-18T02:49:27.775Z,12.79
2018-10-18T02:50:08.337Z,12.82
2018-10-18T02:50:48.912Z,12.85
2018-10-18T02:51:29.502Z,12.82
2018-10-18T02:52:10.112Z,12.86
2018-10-18T02:52:50.676Z,12.83
2018-10-18T02:53:31.235Z,12.8
2018-10-18T02:54:11.799Z,12.8
2018-10-18T02:54:52.379Z,12.83
2018-10-18T02:55:32.948Z,12.82
2018-10-18T02:56:13.517Z,12.83
2018-10-18T02:56:54.072Z,12.85
2018-10-18T02:57:34.635Z,12.82
2018-10-18T02:58:15.214Z,12.76
2018-10-18T02:58:55.810Z,12.78
2018-10-18T02:59:36.384Z,12.75
2018-10-18T03:00:16.989Z,12.72
2018-10-18T03:00:57.550Z,12.76
2018-10-18T03:01:38.122Z,12.68
2018-10-18T03:02:18.678Z,12.73
2018-10-18T03:02:59.234Z,12.73
2018-10-18T03:03:39.797Z,12.73
2018-10-18T03:04:20.362Z,12.73
2018-10-18T03:05:00.912Z,12.78
2018-10-18T03:05:41.468Z,12.73
2018-10-18T03:06:22.037Z,12.73
2018-10-18T03:07:02.624Z,12.7
2018-10-18T03:07:43.196Z,12.73
2018-10-18T03:08:23.762Z,12.7
2018-10-18T03:09:04.374Z,12.73
2018-10-18T03:09:44.950Z,12.76
2018-10-18T03:10:25.511Z,12.73
2018-10-18T03:11:06.070Z,12.76
2018-10-18T03:11:46.639Z,12.61
2018-10-18T03:12:27.208Z,12.76
2018-10-18T03:13:07.797Z,12.75
2018-10-18T03:13:48.349Z,12.76
2018-10-18T03:14:28.912Z,12.73
2018-10-18T03:15:09.488Z,12.75
2018-10-18T03:15:50.053Z,12.7
2018-10-18T03:16:30.603Z,12.64
2018-10-18T03:17:11.153Z,12.73
2018-10-18T03:17:51.769Z,12.75
2018-10-18T03:18:32.319Z,12.72
2018-10-18T03:19:12.896Z,12.6
2018-10-18T03:19:53.509Z,12.55
2018-10-18T03:20:34.039Z,12.61
2018-10-18T03:21:14.616Z,12.54
2018-10-18T03:21:55.187Z,12.62
2018-10-18T03:22:35.797Z,12.62
2018-10-18T03:23:16.370Z,12.6
2018-10-18T03:23:56.944Z,12.58
2018-10-18T03:24:37.518Z,12.6
2018-10-18T03:25:18.099Z,12.62
2018-10-18T03:25:58.663Z,12.57
2018-10-18T03:26:39.247Z,12.6
2018-10-18T03:27:19.824Z,12.62
2018-10-18T03:28:00.415Z,12.57
2018-10-18T03:28:40.973Z,12.61
2018-10-18T03:29:21.553Z,12.65
2018-10-18T03:30:02.188Z,12.67
2018-10-18T03:30:42.711Z,12.62
2018-10-18T03:31:23.288Z,12.57
2018-10-18T03:32:03.838Z,12.64
2018-10-18T03:32:44.387Z,12.61
2018-10-18T03:33:24.934Z,12.55
2018-10-18T03:34:05.493Z,12.6
2018-10-18T03:34:46.044Z,12.64
2018-10-18T03:35:26.612Z,12.61
2018-10-18T03:36:07.279Z,12.61
2018-10-18T03:36:47.738Z,12.6
2018-10-18T03:37:28.295Z,12.64
2018-10-18T03:38:08.859Z,12.6
2018-10-18T03:38:49.428Z,12.57
2018-10-18T03:39:30.002Z,12.53
2018-10-18T03:40:10.556Z,12.68
2018-10-18T03:40:51.122Z,12.6
2018-10-18T03:41:31.669Z,12.58
2018-10-18T03:42:12.355Z,12.58
2018-10-18T03:42:52.817Z,12.61
2018-10-18T03:43:33.443Z,12.54
2018-10-18T03:44:13.946Z,12.62
2018-10-18T03:44:54.519Z,12.54
2018-10-18T03:45:35.081Z,12.6
2018-10-18T03:46:15.641Z,12.54
2018-10-18T03:46:56.206Z,12.58
2018-10-18T03:47:36.797Z,12.54
2018-10-18T03:48:17.442Z,12.54
2018-10-18T03:48:57.909Z,12.55
2018-10-18T03:49:38.471Z,12.55
2018-10-18T03:50:19.020Z,12.57
2018-10-18T03:50:59.576Z,12.58
2018-10-18T03:51:40.127Z,12.55
2018-10-18T03:52:20.705Z,12.58
2018-10-18T03:53:01.270Z,12.55
2018-10-18T03:53:41.842Z,12.6
2018-10-18T03:54:22.408Z,12.55
2018-10-18T03:55:13.718Z,12.6
2018-10-18T03:55:54.264Z,12.53
2018-10-18T03:56:34.866Z,12.54
2018-10-18T03:57:16.014Z,12.55
2018-10-18T03:57:56.614Z,12.57
2018-10-18T03:58:37.189Z,12.57
2018-10-18T03:59:17.792Z,12.55
2018-10-18T03:59:58.375Z,12.57
2018-10-18T04:00:38.980Z,12.55
2018-10-18T04:01:19.530Z,12.53
2018-10-18T04:02:00.130Z,12.53
2018-10-18T04:02:40.678Z,12.5
2018-10-18T04:03:21.218Z,12.46
2018-10-18T04:04:01.776Z,12.55
2018-10-18T04:04:42.331Z,12.46
2018-10-18T04:05:22.907Z,12.49
2018-10-18T04:06:03.605Z,12.49
2018-10-18T04:06:44.036Z,12.57
2018-10-18T04:07:24.615Z,12.46
2018-10-18T04:08:05.180Z,12.47
2018-10-18T04:08:45.744Z,12.54
2018-10-18T04:09:26.297Z,12.55
2018-10-18T04:10:06.885Z,12.57
2018-10-18T04:10:47.472Z,12.5
2018-10-18T04:11:28.045Z,12.53
2018-10-18T04:12:08.720Z,12.46
2018-10-18T04:12:49.371Z,12.46
2018-10-18T04:13:29.741Z,12.47
2018-10-18T04:14:10.310Z,12.53
2018-10-18T04:14:50.900Z,12.5
2018-10-18T04:15:31.468Z,12.53
2018-10-18T04:16:12.038Z,12.54
2018-10-18T04:16:52.590Z,12.46
2018-10-18T04:17:33.154Z,12.46
2018-10-18T04:18:13.772Z,12.46
2018-10-18T04:18:54.314Z,12.49
2018-10-18T04:19:34.873Z,12.46
2018-10-18T04:20:15.434Z,12.46
2018-10-18T04:20:55.993Z,12.46
2018-10-18T04:21:36.606Z,12.47
2018-10-18T04:22:17.155Z,12.5
2018-10-18T04:22:57.759Z,12.46
2018-10-18T04:23:38.301Z,12.49
2018-10-18T04:24:19.830Z,12.5
2018-10-18T04:25:00.393Z,12.5
2018-10-18T04:25:41.180Z,12.47
2018-10-18T04:26:21.688Z,12.5
2018-10-18T04:27:02.255Z,12.53
2018-10-18T04:27:42.811Z,12.47
2018-10-18T04:28:23.373Z,12.49
2018-10-18T04:29:03.960Z,12.5
2018-10-18T04:29:44.545Z,12.53
2018-10-18T04:30:25.202Z,12.47
2018-10-18T04:31:05.954Z,12.5
2018-10-18T04:31:46.638Z,12.53
2018-10-18T04:32:27.251Z,12.5
2018-10-18T04:33:07.825Z,12.47
2018-10-18T04:33:48.387Z,12.5
2018-10-18T04:34:28.996Z,12.47
2018-10-18T04:35:09.574Z,12.5
2018-10-18T04:35:50.135Z,12.47
2018-10-18T04:36:30.687Z,12.49
2018-10-18T04:37:11.302Z,12.43
2018-10-18T04:37:51.892Z,12.45
2018-10-18T04:38:32.467Z,12.5
2018-10-18T04:39:13.380Z,12.45
2018-10-18T04:39:54.278Z,12.49
2018-10-18T04:40:35.223Z,12.5
2018-10-18T04:41:16.306Z,12.46
2018-10-18T04:41:56.970Z,12.45
2018-10-18T04:42:38.974Z,12.46
2018-10-18T04:43:19.586Z,12.5
2018-10-18T04:44:00.154Z,12.45
2018-10-18T04:44:40.726Z,12.39
2018-10-18T04:45:21.278Z,12.5
2018-10-18T04:46:01.876Z,12.47
2018-10-18T04:46:42.461Z,12.46
2018-10-18T04:47:23.211Z,12.49
2018-10-18T04:48:03.759Z,12.37
2018-10-18T04:48:44.201Z,12.47
2018-10-18T04:49:24.740Z,12.43
2018-10-18T04:50:05.328Z,12.43
2018-10-18T04:50:45.919Z,12.43
2018-10-18T04:51:26.485Z,12.43
2018-10-18T04:52:07.053Z,12.43
2018-10-18T04:52:47.635Z,12.42
2018-10-18T04:53:28.530Z,12.5
2018-10-18T04:54:09.301Z,12.43
2018-10-18T04:54:49.966Z,12.47
2018-10-18T04:55:30.597Z,12.45
2018-10-18T04:56:11.370Z,12.46
2018-10-18T04:56:52.093Z,12.45
2018-10-18T04:57:32.657Z,12.49
2018-10-18T04:58:13.303Z,12.45
2018-10-18T04:58:53.929Z,12.46
2018-10-18T04:59:34.594Z,12.47
2018-10-18T05:00:15.190Z,12.42
2018-10-18T05:00:55.807Z,12.45
2018-10-18T05:01:36.432Z,12.42
2018-10-18T05:02:17.015Z,12.39
2018-10-18T05:02:57.700Z,12.42
2018-10-18T05:03:38.603Z,12.43
2018-10-18T05:04:19.193Z,12.4
2018-10-18T05:04:59.752Z,12.37
2018-10-18T05:05:40.332Z,12.4
2018-10-18T05:06:20.883Z,12.36
2018-10-18T05:07:01.511Z,12.37
2018-10-18T05:07:41.987Z,12.36
2018-10-18T05:08:22.535Z,12.39
2018-10-18T05:09:03.081Z,12.37
2018-10-18T05:09:43.630Z,12.39
2018-10-18T05:10:24.192Z,12.4
2018-10-18T05:11:04.765Z,12.35
2018-10-18T05:11:45.293Z,12.35
2018-10-18T05:12:25.906Z,12.39
2018-10-18T05:13:06.520Z,12.43
2018-10-18T05:13:47.011Z,12.36
2018-10-18T05:14:27.570Z,12.46
2018-10-18T05:15:08.137Z,12.46
2018-10-18T05:15:48.692Z,12.43
2018-10-18T05:16:29.260Z,12.37
2018-10-18T05:17:09.833Z,12.35
2018-10-18T05:17:50.383Z,12.35
2018-10-18T05:18:30.975Z,12.35
2018-10-18T05:19:11.586Z,12.4
2018-10-18T05:19:52.095Z,12.39
2018-10-18T05:20:32.662Z,12.35
2018-10-18T05:21:13.245Z,12.46
2018-10-18T05:21:53.809Z,12.36
2018-10-18T05:22:34.378Z,12.46
2018-10-18T05:23:14.945Z,12.45
2018-10-18T05:23:55.509Z,12.42
2018-10-18T05:24:36.169Z,12.35
2018-10-18T05:25:16.952Z,12.39
2018-10-18T05:25:57.326Z,12.46
2018-10-18T05:26:37.891Z,12.35
2018-10-18T05:27:18.442Z,12.45
2018-10-18T05:27:59.008Z,12.36
2018-10-18T05:28:39.584Z,12.39
2018-10-18T05:29:20.180Z,12.4
2018-10-18T05:30:00.792Z,12.39
2018-10-18T05:30:41.348Z,12.42
2018-10-18T05:31:22.003Z,12.36
2018-10-18T05:32:02.479Z,12.42
2018-10-18T05:32:43.048Z,12.37
2018-10-18T05:33:23.619Z,12.39
2018-10-18T05:34:04.199Z,12.42
2018-10-18T05:34:44.771Z,12.32
2018-10-18T05:35:25.321Z,12.32
2018-10-18T05:36:05.892Z,12.36
2018-10-18T05:36:46.446Z,12.39
2018-10-18T05:37:27.066Z,12.29
2018-10-18T05:38:07.597Z,12.32
2018-10-18T05:38:48.328Z,12.32
2018-10-18T05:39:28.887Z,12.25
2018-10-18T05:40:09.432Z,12.28
2018-10-18T05:40:50.036Z,12.36
2018-10-18T05:41:30.619Z,12.35
2018-10-18T05:42:11.178Z,12.35
2018-10-18T05:42:51.730Z,12.32
2018-10-18T05:43:32.324Z,12.29
2018-10-18T05:44:12.886Z,12.29
2018-10-18T05:44:53.479Z,12.31
2018-10-18T05:45:34.051Z,12.35
2018-10-18T05:46:14.624Z,12.35
2018-10-18T05:46:55.394Z,12.29
2018-10-18T05:47:35.752Z,12.32
2018-10-18T05:48:16.316Z,12.28
2018-10-18T05:48:56.884Z,12.31
2018-10-18T05:49:37.420Z,12.36
2018-10-18T05:50:17.979Z,12.29
2018-10-18T05:50:58.531Z,12.35
2018-10-18T05:51:39.093Z,12.32
2018-10-18T05:52:19.708Z,12.25
2018-10-18T05:53:00.273Z,12.29
2018-10-18T05:53:40.904Z,12.39
2018-10-18T05:54:21.494Z,12.29
2018-10-18T05:55:02.033Z,12.39
2018-10-18T05:55:42.581Z,12.39
2018-10-18T05:56:23.153Z,12.35
2018-10-18T05:57:03.717Z,12.42
2018-10-18T05:57:44.273Z,12.42
2018-10-18T05:58:24.848Z,12.4
2018-10-18T05:59:05.407Z,12.32
2018-10-18T05:59:45.965Z,12.43
2018-10-18T06:00:26.528Z,12.37
2018-10-18T06:01:07.304Z,12.39
2018-10-18T06:01:47.866Z,12.45
2018-10-18T06:02:28.689Z,12.42
2018-10-18T06:03:09.251Z,12.43
2018-10-18T06:03:49.814Z,12.45
2018-10-18T06:04:30.409Z,12.42
2018-10-18T06:05:10.985Z,12.45
2018-10-18T06:05:51.544Z,12.49
2018-10-18T06:06:32.124Z,12.46
2018-10-18T06:07:12.692Z,12.49
2018-10-18T06:07:53.249Z,12.49
2018-10-18T06:08:33.806Z,12.47
2018-10-18T06:09:14.361Z,12.49
2018-10-18T06:09:54.997Z,12.47
2018-10-18T06:10:35.617Z,12.49
2018-10-18T06:11:16.101Z,12.47
2018-10-18T06:11:56.690Z,12.46
2018-10-18T06:12:37.256Z,12.49
2018-10-18T06:13:17.877Z,12.46
2018-10-18T06:13:58.370Z,12.46
2018-10-18T06:14:38.929Z,12.47
2018-10-18T06:15:19.548Z,12.49
2018-10-18T06:16:00.432Z,12.47
2018-10-18T06:16:40.993Z,12.55
2018-10-18T06:17:21.624Z,12.47
2018-10-18T06:18:02.204Z,12.43
2018-10-18T06:18:42.776Z,12.47
2018-10-18T06:19:23.342Z,12.43
2018-10-18T06:20:03.920Z,12.49
2018-10-18T06:20:44.470Z,12.47
2018-10-18T06:21:25.029Z,12.47
2018-10-18T06:22:05.584Z,12.49
2018-10-18T06:22:46.255Z,12.53
2018-10-18T06:23:26.847Z,12.5
2018-10-18T06:24:07.338Z,12.49
2018-10-18T06:24:47.900Z,12.55
2018-10-18T06:25:28.487Z,12.58
2018-10-18T06:26:09.061Z,12.53
2018-10-18T06:26:49.641Z,12.54
2018-10-18T06:27:30.192Z,12.53
2018-10-18T06:28:10.745Z,12.54
2018-10-18T06:28:51.309Z,12.53
2018-10-18T06:29:31.863Z,12.53
2018-10-18T06:30:12.428Z,12.54
2018-10-18T06:30:52.997Z,12.53
2018-10-18T06:31:33.555Z,12.5
2018-10-18T06:32:14.132Z,12.54
2018-10-18T06:32:54.756Z,12.55
2018-10-18T06:33:35.280Z,12.55
2018-10-18T06:34:15.870Z,12.64
2018-10-18T06:34:56.492Z,12.5
2018-10-18T06:35:37.020Z,12.61
2018-10-18T06:36:17.585Z,12.6
2018-10-18T06:36:58.186Z,12.67
2018-10-18T06:37:38.742Z,12.62
2018-10-18T06:38:19.296Z,12.65
2018-10-18T06:38:59.893Z,12.58
2018-10-18T06:39:40.403Z,12.6
2018-10-18T06:40:20.990Z,12.58
2018-10-18T06:41:01.643Z,12.62
2018-10-18T06:41:42.159Z,12.6
2018-10-18T06:42:22.713Z,12.61
2018-10-18T06:43:03.329Z,12.57
2018-10-18T06:43:43.848Z,12.73
2018-10-18T06:44:24.447Z,12.65
2018-10-18T06:45:05.020Z,12.76
2018-10-18T06:45:45.627Z,12.73
2018-10-18T06:46:26.236Z,12.75
2018-10-18T06:47:06.995Z,12.72
2018-10-18T06:47:47.651Z,12.75
2018-10-18T06:48:28.460Z,12.7
2018-10-18T06:49:09.299Z,12.78
2018-10-18T06:49:49.730Z,12.72
2018-10-18T06:50:30.339Z,12.76
2018-10-18T06:51:10.894Z,12.82
2018-10-18T06:51:51.451Z,12.85
2018-10-18T06:52:31.999Z,12.79
2018-10-18T06:53:12.562Z,12.85
2018-10-18T06:53:53.197Z,12.83
2018-10-18T06:54:33.748Z,12.82
2018-10-18T06:55:14.399Z,12.82
2018-10-18T06:55:54.915Z,12.85
2018-10-18T06:56:35.491Z,12.94
2018-10-18T06:57:16.070Z,12.98
2018-10-18T06:57:56.642Z,12.95
2018-10-18T06:58:37.186Z,12.98
2018-10-18T06:59:17.769Z,13.03
2018-10-18T06:59:58.427Z,13.05
2018-10-18T07:00:38.902Z,13.03
2018-10-18T07:01:19.457Z,13.03
2018-10-18T07:02:00.033Z,13.09
2018-10-18T07:02:40.579Z,13.11
2018-10-18T07:03:21.163Z,13.16
2018-10-18T07:04:01.763Z,13.2
2018-10-18T07:04:42.346Z,13.18
2018-10-18T07:05:22.909Z,13.23
2018-10-18T07:06:03.495Z,13.18
2018-10-18T07:06:44.063Z,13.25
2018-10-18T07:07:24.621Z,13.22
2018-10-18T07:08:05.203Z,13.19
2018-10-18T07:08:45.817Z,13.35
2018-10-18T07:09:26.428Z,13.39
2018-10-18T07:10:07.038Z,13.38
2018-10-18T07:10:47.644Z,13.42
2018-10-18T07:11:28.171Z,13.37
2018-10-18T07:12:08.778Z,13.42
2018-10-18T07:12:49.349Z,13.41
2018-10-18T07:13:29.904Z,13.41
2018-10-18T07:14:10.503Z,13.42
2018-10-18T07:14:51.059Z,13.38
2018-10-18T07:15:31.629Z,13.56
2018-10-18T07:16:12.183Z,13.5
2018-10-18T07:16:52.772Z,13.49
2018-10-18T07:17:33.418Z,13.54
2018-10-18T07:18:13.981Z,13.52
2018-10-18T07:18:54.498Z,13.54
2018-10-18T07:19:35.050Z,13.65
2018-10-18T07:20:15.598Z,13.7
2018-10-18T07:20:56.166Z,13.6
2018-10-18T07:21:36.793Z,13.77
2018-10-18T07:22:17.383Z,13.78
2018-10-18T07:22:57.964Z,13.78
2018-10-18T07:23:38.551Z,13.78
2018-10-18T07:24:19.101Z,13.85
2018-10-18T07:24:59.703Z,13.93
2018-10-18T07:25:40.258Z,13.9
2018-10-18T07:26:20.871Z,13.95
2018-10-18T07:27:01.416Z,13.9
2018-10-18T07:27:41.962Z,14.08
2018-10-18T07:28:22.556Z,14.05
2018-10-18T07:29:03.124Z,14.1
2018-10-18T07:29:43.782Z,14.08
2018-10-18T07:30:24.350Z,14.17
2018-10-18T07:31:04.933Z,14.22
2018-10-18T07:31:45.506Z,14.23
2018-10-18T07:32:26.081Z,14.33
2018-10-18T07:33:06.719Z,14.37
2018-10-18T07:33:47.318Z,14.36
2018-10-18T07:34:27.873Z,14.36
2018-10-18T07:35:08.688Z,14.41
2018-10-18T07:35:49.014Z,14.59
2018-10-18T07:36:29.590Z,14.53
2018-10-18T07:37:10.216Z,14.51
2018-10-18T07:37:50.774Z,14.59
2018-10-18T07:38:31.323Z,14.48
2018-10-18T07:39:11.873Z,14.5
2018-10-18T07:39:52.432Z,14.63
2018-10-18T07:40:32.988Z,14.5
2018-10-18T07:41:13.565Z,14.54
2018-10-18T07:41:54.159Z,14.63
2018-10-18T07:42:34.729Z,14.55
2018-10-18T07:43:15.344Z,14.6
2018-10-18T07:43:55.924Z,14.6
2018-10-18T07:44:36.484Z,14.63
2018-10-18T07:45:17.059Z,14.63
2018-10-18T07:45:57.637Z,14.68
2018-10-18T07:46:38.296Z,14.7
2018-10-18T07:47:18.816Z,14.81
2018-10-18T07:47:59.467Z,14.73
2018-10-18T07:48:39.994Z,14.77
2018-10-18T07:49:20.562Z,14.88
2018-10-18T07:50:01.178Z,14.88
2018-10-18T07:50:41.770Z,14.88
2018-10-18T07:51:22.355Z,14.94
2018-10-18T07:52:02.942Z,14.96
2018-10-18T07:52:43.677Z,15
2018-10-18T07:53:24.357Z,15.04
2018-10-18T07:54:04.942Z,14.99
2018-10-18T07:54:45.417Z,14.91
2018-10-18T07:55:25.998Z,14.99
2018-10-18T07:56:06.574Z,14.96
2018-10-18T07:56:47.165Z,14.99
2018-10-18T07:57:27.721Z,15.24
2018-10-18T07:58:08.304Z,15.36
2018-10-18T07:58:48.914Z,15.58
2018-10-18T07:59:29.460Z,15.9
2018-10-18T08:00:10.061Z,16.16
2018-10-18T08:00:50.720Z,16.53
2018-10-18T08:01:31.215Z,16.75
2018-10-18T08:02:11.784Z,16.97
2018-10-18T08:02:52.366Z,17.23
2018-10-18T08:03:32.954Z,17.45
2018-10-18T08:04:13.515Z,17.79
2018-10-18T08:04:54.083Z,18
2018-10-18T08:05:34.843Z,18.16
2018-10-18T08:06:15.426Z,18.38
2018-10-18T08:06:56.058Z,18.45
2018-10-18T08:07:36.621Z,18.65
2018-10-18T08:08:17.214Z,18.83
2018-10-18T08:08:57.810Z,19.02
2018-10-18T08:09:38.380Z,19.09
2018-10-18T08:10:18.965Z,19.27
2018-10-18T08:10:59.621Z,19.41
2018-10-18T08:11:40.152Z,19.48
2018-10-18T08:12:20.744Z,19.62
2018-10-18T08:13:01.364Z,19.67
2018-10-18T08:13:41.893Z,19.71
2018-10-18T08:14:22.500Z,19.69
2018-10-18T08:15:03.059Z,19.88
2018-10-18T08:15:43.642Z,19.89
2018-10-18T08:16:24.234Z,19.95
2018-10-18T08:17:04.933Z,20.07
2018-10-18T08:17:45.401Z,20.19
2018-10-18T08:18:25.969Z,20.11
2018-10-18T08:19:06.665Z,20.26
2018-10-18T08:19:47.163Z,20.29
2018-10-18T08:20:27.753Z,20.39
2018-10-18T08:21:08.314Z,20.43
2018-10-18T08:21:48.866Z,20.44
2018-10-18T08:22:29.481Z,20.56
2018-10-18T08:23:10.209Z,20.6
2018-10-18T08:23:50.637Z,20.67
2018-10-18T08:24:31.254Z,20.81
2018-10-18T08:25:11.888Z,20.84
2018-10-18T08:25:52.521Z,20.95
2018-10-18T08:26:33.087Z,20.97
2018-10-18T08:27:13.670Z,20.82
2018-10-18T08:27:54.255Z,20.93
2018-10-18T08:28:34.860Z,21.03
2018-10-18T08:29:15.432Z,20.93
2018-10-18T08:29:55.997Z,20.9
2018-10-18T08:30:36.637Z,20.96
2018-10-18T08:31:17.399Z,21.02
2018-10-18T08:31:57.780Z,21
2018-10-18T08:32:38.348Z,20.96
2018-10-18T08:33:18.918Z,20.97
2018-10-18T08:33:59.505Z,20.85
2018-10-18T08:34:40.290Z,20.85
2018-10-18T08:35:20.900Z,20.8
2018-10-18T08:36:01.458Z,20.7
2018-10-18T08:36:42.033Z,20.69
2018-10-18T08:37:22.699Z,20.58
2018-10-18T08:38:03.338Z,20.51
2018-10-18T08:38:43.831Z,20.44
2018-10-18T08:39:24.431Z,20.22
2018-10-18T08:40:05.001Z,20.21
2018-10-18T08:40:45.605Z,20.09
2018-10-18T08:41:26.217Z,19.94
2018-10-18T08:42:06.803Z,19.91
2018-10-18T08:42:47.377Z,19.86
2018-10-18T08:43:27.961Z,19.86
2018-10-18T08:44:08.613Z,19.69
2018-10-18T08:44:49.181Z,19.69